Terminal Aerodrome Forecast
Issued by NWS Louisville, KY

Home | Current Version | Previous Version | Text Only | Print | Product List | Glossary On
Versions: 1 2 3 4 5 6 7 8 9 10 11 12 13 14 15
000
FTUS43 KLMK 192300
TAFBWG
TAF
KBWG 192333Z 2000/2024 03003KT P6SM BKN040 BKN150
     FM200900 00000KT 5SM HZ BKN035
     FM201300 VRB03KT P6SM BKN025
     FM201600 VRB03KT P6SM SCT025=

USA.gov is the U.S. government's official web portal to all federal, state and local government web resources and services.